createdAt,value
2018-04-07T00:00:00.831Z,69.20
2018-04-07T00:02:28.333Z,70.00
2018-04-07T00:04:55.957Z,71.10
2018-04-07T00:07:23.633Z,71.70
2018-04-07T00:09:51.148Z,71.90
2018-04-07T00:12:18.682Z,72.30
2018-04-07T00:14:46.220Z,72.90
2018-04-07T00:17:13.763Z,73.20
2018-04-07T00:19:42.172Z,72.50
2018-04-07T00:22:09.680Z,72.50
2018-04-07T00:24:37.202Z,73.10
2018-04-07T00:27:04.764Z,72.80
2018-04-07T00:29:32.301Z,73.30
2018-04-07T00:32:00.598Z,73.90
2018-04-07T00:34:28.136Z,73.70
2018-04-07T00:36:56.413Z,72.50
2018-04-07T00:39:24.725Z,72.90
2018-04-07T00:41:52.296Z,73.10
2018-04-07T00:44:19.823Z,73.70
2018-04-07T00:46:47.355Z,73.40
2018-04-07T00:49:14.888Z,72.80
2018-04-07T00:51:42.449Z,72.30
2018-04-07T00:54:09.961Z,72.20
2018-04-07T00:56:37.489Z,72.50
2018-04-07T00:59:05.041Z,72.20
2018-04-07T01:01:32.603Z,72.20
2018-04-07T01:04:00.109Z,72.50
2018-04-07T01:06:27.636Z,72.30
2018-04-07T01:08:55.194Z,72.50
2018-04-07T01:11:22.718Z,72.30
2018-04-07T01:13:50.242Z,72.00
2018-04-07T01:16:17.766Z,71.90
2018-04-07T01:18:46.062Z,71.30
2018-04-07T01:21:13.578Z,71.30
2018-04-07T01:23:41.128Z,71.30
2018-04-07T01:26:08.670Z,71.20
2018-04-07T01:28:36.228Z,71.10
2018-04-07T01:31:03.747Z,71.00
2018-04-07T01:33:31.267Z,71.20
2018-04-07T01:35:58.788Z,71.50
2018-04-07T01:38:27.101Z,72.10
2018-04-07T01:40:54.623Z,71.50
2018-04-07T01:43:22.140Z,71.90
2018-04-07T01:45:49.689Z,72.20
2018-04-07T01:48:17.217Z,72.00
2018-04-07T01:50:44.733Z,71.50
2018-04-07T01:53:12.276Z,71.60
2018-04-07T01:55:39.796Z,71.90
2018-04-07T01:58:08.083Z,72.40
2018-04-07T02:00:35.595Z,72.40
2018-04-07T02:03:03.132Z,72.20
2018-04-07T02:05:31.416Z,72.10
2018-04-07T02:07:58.984Z,72.00
2018-04-07T02:10:26.500Z,72.20
2018-04-07T02:12:54.006Z,71.70
2018-04-07T02:15:22.302Z,72.20
2018-04-07T02:17:49.819Z,72.20
2018-04-07T02:20:18.158Z,71.70
2018-04-07T02:22:45.714Z,71.80
2018-04-07T02:25:13.289Z,71.80
2018-04-07T02:27:40.794Z,71.70
2018-04-07T02:30:09.081Z,71.40
2018-04-07T02:32:36.612Z,71.50
2018-04-07T02:35:04.123Z,71.50
2018-04-07T02:37:32.436Z,71.50
2018-04-07T02:39:59.942Z,71.40
2018-04-07T02:42:27.502Z,71.70
2018-04-07T02:44:55.012Z,71.60
2018-04-07T02:47:22.550Z,71.60
2018-04-07T02:49:50.153Z,71.40
2018-04-07T02:52:17.718Z,71.70
2018-04-07T02:54:45.243Z,71.70
2018-04-07T02:57:13.536Z,71.80
2018-04-07T02:59:41.846Z,71.60
2018-04-07T03:02:09.373Z,71.60
2018-04-07T03:04:36.906Z,72.00
2018-04-07T03:07:04.443Z,72.00
2018-04-07T03:09:31.958Z,72.00
2018-04-07T03:12:00.284Z,72.10
2018-04-07T03:14:27.796Z,71.90
2018-04-07T03:16:55.332Z,72.20
2018-04-07T03:19:22.847Z,72.40
2018-04-07T03:21:51.149Z,72.80
2018-04-07T03:24:18.681Z,72.80
2018-04-07T03:26:46.287Z,72.90
2018-04-07T03:29:13.830Z,72.70
2018-04-07T03:31:42.126Z,72.60
2018-04-07T03:34:09.797Z,72.60
2018-04-07T03:36:37.298Z,72.90
2018-04-07T03:39:04.823Z,72.90
2018-04-07T03:41:32.350Z,73.10
2018-04-07T03:43:59.863Z,72.70
2018-04-07T03:46:27.373Z,73.10
2018-04-07T03:48:54.907Z,72.90
2018-04-07T03:51:22.446Z,73.60
2018-04-07T03:53:50.024Z,73.10
2018-04-07T03:56:17.573Z,73.30
2018-04-07T03:58:45.084Z,73.20
2018-04-07T04:01:12.645Z,73.20
2018-04-07T04:03:41.699Z,73.40
2018-04-07T04:06:09.233Z,73.50
2018-04-07T04:08:37.535Z,73.60
2018-04-07T04:11:05.065Z,73.50
2018-04-07T04:13:32.677Z,74.00
2018-04-07T04:16:00.200Z,73.70
2018-04-07T04:18:27.777Z,73.70
2018-04-07T04:20:56.049Z,73.80
2018-04-07T04:23:24.369Z,73.80
2018-04-07T04:25:51.906Z,73.60
2018-04-07T04:28:19.450Z,73.70
2018-04-07T04:30:47.016Z,73.80
2018-04-07T04:33:15.325Z,73.90
2018-04-07T04:35:42.902Z,73.80
2018-04-07T04:38:10.426Z,73.70
2018-04-07T04:40:38.723Z,74.00
2018-04-07T04:43:07.020Z,73.90
2018-04-07T04:45:34.568Z,73.90
2018-04-07T04:48:02.876Z,73.70
2018-04-07T04:50:30.438Z,73.70
2018-04-07T04:52:58.002Z,73.70
2018-04-07T04:55:25.509Z,73.90
2018-04-07T04:57:53.053Z,74.00
2018-04-07T05:00:20.578Z,74.10
2018-04-07T05:02:48.854Z,74.00
2018-04-07T05:05:17.257Z,73.70
2018-04-07T05:07:44.791Z,73.70
2018-04-07T05:10:13.096Z,73.70
2018-04-07T05:12:40.617Z,73.70
2018-04-07T05:15:08.235Z,73.90
2018-04-07T05:17:35.741Z,74.10
2018-04-07T05:20:03.904Z,74.00
2018-04-07T05:22:31.542Z,74.20
2018-04-07T05:24:59.094Z,74.00
2018-04-07T05:27:26.616Z,74.50
2018-04-07T05:29:54.149Z,73.60
2018-04-07T05:32:21.679Z,73.10
2018-04-07T05:34:49.975Z,71.50
2018-04-07T05:37:17.500Z,71.50
2018-04-07T05:39:45.107Z,70.40
2018-04-07T05:42:12.648Z,70.20
2018-04-07T05:44:40.962Z,69.30
2018-04-07T05:47:08.483Z,69.30
2018-04-07T05:49:36.019Z,69.30
2018-04-07T05:52:03.550Z,67.40
2018-04-07T05:54:31.094Z,68.70
2018-04-07T05:56:59.494Z,67.40
2018-04-07T05:59:27.040Z,67.40
2018-04-07T06:01:55.287Z,66.50
2018-04-07T06:04:22.905Z,67.00
2018-04-07T06:06:50.417Z,66.50
2018-04-07T06:09:17.957Z,66.30
2018-04-07T06:11:45.515Z,66.70
2018-04-07T06:14:13.166Z,64.80
2018-04-07T06:16:41.490Z,65.40
2018-04-07T06:19:09.020Z,65.40
2018-04-07T06:21:36.540Z,65.70
2018-04-07T06:24:04.851Z,64.70
2018-04-07T06:26:32.365Z,64.70
2018-04-07T06:28:59.904Z,64.10
2018-04-07T06:31:27.420Z,63.90
2018-04-07T06:33:55.712Z,64.20
2018-04-07T06:36:23.224Z,64.20
2018-04-07T06:38:50.776Z,63.60
2018-04-07T06:41:18.303Z,63.60
2018-04-07T06:43:46.308Z,63.40
2018-04-07T06:46:13.828Z,65.90
2018-04-07T06:48:42.135Z,65.20
2018-04-07T06:51:09.674Z,65.20
2018-04-07T06:53:37.959Z,64.30
2018-04-07T06:56:06.278Z,62.80
2018-04-07T06:58:33.805Z,62.70
2018-04-07T07:01:02.084Z,64.50
2018-04-07T07:03:30.385Z,63.20
2018-04-07T07:05:57.939Z,63.20
2018-04-07T07:08:25.460Z,61.70
2018-04-07T07:10:52.981Z,62.60
2018-04-07T07:13:20.528Z,61.20
2018-04-07T07:15:48.065Z,63.80
2018-04-07T07:18:15.671Z,60.60
2018-04-07T07:20:43.212Z,62.30
2018-04-07T07:23:11.553Z,60.90
2018-04-07T07:25:39.111Z,60.80
2018-04-07T07:28:06.633Z,61.20
2018-04-07T07:30:34.166Z,60.60
2018-04-07T07:33:01.778Z,60.10
2018-04-07T07:35:29.312Z,61.40
2018-04-07T07:37:57.730Z,60.90
2018-04-07T07:40:25.244Z,60.80
2018-04-07T07:42:52.775Z,59.40
2018-04-07T07:45:20.301Z,59.30
2018-04-07T07:47:48.710Z,57.90
2018-04-07T07:50:16.250Z,57.90
2018-04-07T07:52:43.781Z,59.40
2018-04-07T07:55:11.330Z,58.10
2018-04-07T07:57:38.865Z,57.10
2018-04-07T08:00:06.411Z,56.50
2018-04-07T08:02:33.936Z,55.90
2018-04-07T08:05:01.551Z,53.40
2018-04-07T08:07:29.723Z,53.50
2018-04-07T08:09:57.241Z,52.30
2018-04-07T08:12:24.761Z,54.40
2018-04-07T08:14:52.288Z,52.80
2018-04-07T08:17:20.619Z,50.90
2018-04-07T08:19:48.182Z,50.70
2018-04-07T08:22:15.725Z,50.70
2018-04-07T08:24:43.268Z,52.10
2018-04-07T08:27:11.576Z,51.90
2018-04-07T08:29:39.108Z,51.90
2018-04-07T08:32:07.446Z,50.00
2018-04-07T08:34:34.926Z,49.90
2018-04-07T08:37:02.942Z,52.00
2018-04-07T08:39:30.573Z,52.30
2018-04-07T08:41:58.024Z,50.80
2018-04-07T08:44:25.580Z,52.50
2018-04-07T08:46:53.120Z,50.80
2018-04-07T08:49:21.375Z,51.80
2018-04-07T08:51:49.671Z,50.10
2018-04-07T08:54:17.221Z,50.10
2018-04-07T08:56:45.628Z,49.90
2018-04-07T08:59:13.189Z,49.90
2018-04-07T09:01:40.702Z,49.80
2018-04-07T09:04:08.234Z,48.90
2018-04-07T09:06:35.779Z,51.20
2018-04-07T09:09:03.347Z,50.20
2018-04-07T09:11:30.876Z,51.40
2018-04-07T09:13:58.426Z,49.60
2018-04-07T09:16:26.757Z,46.80
2018-04-07T09:18:54.286Z,46.80
2018-04-07T09:21:22.602Z,45.40
2018-04-07T09:23:50.162Z,45.90
2018-04-07T09:26:17.709Z,44.80
2018-04-07T09:28:46.066Z,44.10
2018-04-07T09:31:19.328Z,43.90
2018-04-07T09:33:46.816Z,45.20
2018-04-07T09:36:14.440Z,46.70
2018-04-07T09:38:41.997Z,44.00
2018-04-07T09:41:09.528Z,43.20
2018-04-07T09:43:37.064Z,43.80
2018-04-07T09:46:04.588Z,44.20
2018-04-07T09:48:32.139Z,44.00
2018-04-07T09:51:00.410Z,43.70
2018-04-07T09:53:28.678Z,42.80
2018-04-07T09:55:56.356Z,42.80
2018-04-07T09:58:24.641Z,42.60
2018-04-07T10:00:52.934Z,42.80
2018-04-07T10:03:22.260Z,42.60
2018-04-07T10:05:49.796Z,40.50
2018-04-07T10:08:18.105Z,40.00
2018-04-07T10:10:45.660Z,40.00
2018-04-07T10:13:13.178Z,41.50
2018-04-07T10:15:40.726Z,39.50
2018-04-07T10:18:08.292Z,42.30
2018-04-07T10:20:35.810Z,40.60
2018-04-07T10:23:03.357Z,39.80
2018-04-07T10:25:31.639Z,42.50
2018-04-07T10:27:59.933Z,42.00
2018-04-07T10:30:27.459Z,42.00
2018-04-07T10:35:29.662Z,43.90
2018-04-07T10:37:57.201Z,43.80
2018-04-07T10:40:24.830Z,41.90
2018-04-07T10:42:52.364Z,40.40
2018-04-07T10:45:20.673Z,41.00
2018-04-07T10:47:48.205Z,41.00
2018-04-07T10:50:16.528Z,41.60
2018-04-07T10:52:44.063Z,41.60
2018-04-07T10:55:11.610Z,41.40
2018-04-07T10:57:39.138Z,43.50
2018-04-07T11:00:06.776Z,42.20
2018-04-07T11:02:34.300Z,43.30
2018-04-07T11:05:01.832Z,41.40
2018-04-07T11:07:29.354Z,43.10
2018-04-07T11:09:56.880Z,43.20
2018-04-07T11:12:24.427Z,42.10
2018-04-07T11:14:51.939Z,39.60
2018-04-07T11:17:20.293Z,39.10
2018-04-07T11:19:47.791Z,39.20
2018-04-07T11:22:16.091Z,40.60
2018-04-07T11:24:43.601Z,40.60
2018-04-07T11:27:11.897Z,40.70
2018-04-07T11:29:39.421Z,40.90
2018-04-07T11:32:06.938Z,41.00
2018-04-07T11:34:35.241Z,40.70
2018-04-07T11:37:02.751Z,40.00
2018-04-07T11:39:30.264Z,38.60
2018-04-07T11:41:57.841Z,38.20
2018-04-07T11:44:25.356Z,36.70
2018-04-07T11:46:53.676Z,37.40
2018-04-07T11:49:21.204Z,37.20
2018-04-07T11:51:48.720Z,37.60
2018-04-07T11:54:16.302Z,41.30
2018-04-07T11:56:43.812Z,39.80
2018-04-07T11:59:12.116Z,40.30
2018-04-07T12:01:39.644Z,40.10
2018-04-07T12:04:07.160Z,39.40
2018-04-07T12:06:34.810Z,39.80
2018-04-07T12:09:02.324Z,39.30
2018-04-07T12:11:29.903Z,37.30
2018-04-07T12:13:58.258Z,40.20
2018-04-07T12:16:25.793Z,40.00
2018-04-07T12:18:53.358Z,39.20
2018-04-07T12:21:20.846Z,37.70
2018-04-07T12:23:48.390Z,37.70
2018-04-07T12:26:15.903Z,38.10
2018-04-07T12:28:44.176Z,36.60
2018-04-07T12:31:11.729Z,36.60
2018-04-07T12:33:39.257Z,38.50
2018-04-07T12:36:06.797Z,38.90
2018-04-07T12:38:34.377Z,39.80
2018-04-07T12:41:02.045Z,38.60
2018-04-07T12:43:29.583Z,39.60
2018-04-07T12:45:57.864Z,36.60
2018-04-07T12:48:26.272Z,36.10
2018-04-07T12:50:53.796Z,36.10
2018-04-07T12:53:22.120Z,36.50
2018-04-07T12:55:49.624Z,36.30
2018-04-07T12:58:17.246Z,36.10
2018-04-07T13:00:44.812Z,37.70
2018-04-07T13:03:12.344Z,37.30
2018-04-07T13:05:40.641Z,35.60
2018-04-07T13:08:08.936Z,37.20
2018-04-07T13:10:36.497Z,37.20
2018-04-07T13:13:04.039Z,36.50
2018-04-07T13:15:32.345Z,38.10
2018-04-07T13:17:59.873Z,38.10
2018-04-07T13:20:28.173Z,35.40
2018-04-07T13:22:56.474Z,35.90
2018-04-07T13:25:24.028Z,35.80
2018-04-07T13:27:51.575Z,38.40
2018-04-07T13:30:19.884Z,36.90
2018-04-07T13:32:47.416Z,36.90
2018-04-07T13:35:15.705Z,35.90
2018-04-07T13:37:44.031Z,37.40
2018-04-07T13:40:11.550Z,37.30
2018-04-07T13:42:39.857Z,36.60
2018-04-07T13:45:07.429Z,36.40
2018-04-07T13:47:34.955Z,37.60
2018-04-07T13:50:03.253Z,36.20
2018-04-07T13:52:31.548Z,35.50
2018-04-07T13:54:59.107Z,35.50
2018-04-07T13:57:26.614Z,36.40
2018-04-07T13:59:54.139Z,34.00
2018-04-07T14:02:21.681Z,34.80
2018-04-07T14:04:49.972Z,35.00
2018-04-07T14:07:18.365Z,36.70
2018-04-07T14:09:45.937Z,36.70
2018-04-07T14:12:13.469Z,36.70
2018-04-07T14:14:41.766Z,36.50
2018-04-07T14:17:09.342Z,36.40
2018-04-07T14:19:36.877Z,36.00
2018-04-07T14:22:05.234Z,35.90
2018-04-07T14:24:32.766Z,35.90
2018-04-07T14:27:00.319Z,35.40
2018-04-07T14:29:27.879Z,35.90
2018-04-07T14:31:55.406Z,35.80
2018-04-07T14:34:22.933Z,35.90
2018-04-07T14:36:50.494Z,36.90
2018-04-07T14:39:18.025Z,35.90
2018-04-07T14:41:45.565Z,36.30
2018-04-07T14:44:13.072Z,35.70
2018-04-07T14:46:40.664Z,37.10
2018-04-07T14:49:08.154Z,36.30
2018-04-07T14:51:35.676Z,35.40
2018-04-07T14:54:03.220Z,35.00
2018-04-07T14:56:31.500Z,34.70
2018-04-07T14:58:59.067Z,34.70
2018-04-07T15:01:27.554Z,35.70
2018-04-07T15:03:55.080Z,35.40
2018-04-07T15:06:23.372Z,36.30
2018-04-07T15:08:51.656Z,35.60
2018-04-07T15:11:19.968Z,35.10
2018-04-07T15:13:47.494Z,35.00
2018-04-07T15:16:15.914Z,35.60
2018-04-07T15:18:43.429Z,35.50
2018-04-07T15:21:11.716Z,35.80
2018-04-07T15:23:40.024Z,35.30
2018-04-07T15:26:07.540Z,35.30
2018-04-07T15:28:35.099Z,35.90
2018-04-07T15:31:02.658Z,35.40
2018-04-07T15:33:30.170Z,35.90
2018-04-07T15:35:58.506Z,36.90
2018-04-07T15:38:26.044Z,36.80
2018-04-07T15:40:53.587Z,36.20
2018-04-07T15:43:21.862Z,37.00
2018-04-07T15:45:49.395Z,37.00
2018-04-07T15:48:16.915Z,37.10
2018-04-07T15:50:44.472Z,37.30
2018-04-07T15:53:12.033Z,37.10
2018-04-07T15:55:39.560Z,36.50
2018-04-07T15:58:07.079Z,36.20
2018-04-07T16:00:34.613Z,37.60
2018-04-07T16:03:02.145Z,38.20
2018-04-07T16:05:29.709Z,39.10
2018-04-07T16:07:57.266Z,39.70
2018-04-07T16:10:24.884Z,39.80
2018-04-07T16:12:52.448Z,39.90
2018-04-07T16:15:19.980Z,39.20
2018-04-07T16:17:47.530Z,38.20
2018-04-07T16:20:15.048Z,39.00
2018-04-07T16:22:42.606Z,39.60
2018-04-07T16:25:10.159Z,39.70
2018-04-07T16:27:37.694Z,40.40
2018-04-07T16:30:06.020Z,40.20
2018-04-07T16:32:33.555Z,40.50
2018-04-07T16:35:01.968Z,41.70
2018-04-07T16:37:29.527Z,41.60
2018-04-07T16:39:57.090Z,41.50
2018-04-07T16:42:24.636Z,42.00
2018-04-07T16:44:52.919Z,41.70
2018-04-07T16:47:21.244Z,40.70
2018-04-07T16:49:48.759Z,40.70
2018-04-07T16:52:17.080Z,39.80
2018-04-07T16:54:44.596Z,39.80
2018-04-07T16:57:12.109Z,39.80
2018-04-07T16:59:39.655Z,39.60
2018-04-07T17:02:07.169Z,39.90
2018-04-07T17:04:34.716Z,39.70
2018-04-07T17:07:02.237Z,39.60
2018-04-07T17:09:29.778Z,40.30
2018-04-07T17:11:58.144Z,40.20
2018-04-07T17:14:25.673Z,40.20
2018-04-07T17:16:53.217Z,39.90
2018-04-07T17:19:20.722Z,40.20
2018-04-07T17:21:48.256Z,39.70
2018-04-07T17:24:15.777Z,39.30
2018-04-07T17:26:44.112Z,38.90
2018-04-07T17:29:11.639Z,38.90
2018-04-07T17:31:39.948Z,38.40
2018-04-07T17:34:07.474Z,38.40
2018-04-07T17:36:35.811Z,38.70
2018-04-07T17:39:03.351Z,38.60
2018-04-07T17:41:31.653Z,38.50
2018-04-07T17:43:59.199Z,38.50
2018-04-07T17:46:26.763Z,38.70
2018-04-07T17:49:05.990Z,39.00
2018-04-07T17:51:21.874Z,39.80
2018-04-07T17:53:50.171Z,39.20
2018-04-07T17:56:17.739Z,39.10
2018-04-07T17:58:45.335Z,39.50
2018-04-07T18:01:15.129Z,39.60
2018-04-07T18:03:42.703Z,40.20
2018-04-07T18:06:10.250Z,40.70
2018-04-07T18:08:37.819Z,41.90
2018-04-07T18:11:06.615Z,42.30
2018-04-07T18:13:34.180Z,42.60
2018-04-07T18:16:01.757Z,43.10
2018-04-07T18:18:29.338Z,44.00
2018-04-07T18:20:57.852Z,44.70
2018-04-07T18:23:26.170Z,44.70
2018-04-07T18:25:53.714Z,44.70
2018-04-07T18:28:21.265Z,44.90
2018-04-07T18:30:49.609Z,45.00
2018-04-07T18:33:17.932Z,45.60
2018-04-07T18:35:46.286Z,45.70
2018-04-07T18:38:13.913Z,45.10
2018-04-07T18:40:41.924Z,45.30
2018-04-07T18:43:10.260Z,46.30
2018-04-07T18:45:37.884Z,46.20
2018-04-07T18:48:06.268Z,47.00
2018-04-07T18:50:33.923Z,47.00
2018-04-07T18:53:01.561Z,47.20
2018-04-07T18:55:29.151Z,47.80
2018-04-07T18:57:58.064Z,48.80
2018-04-07T19:00:26.493Z,49.80
2018-04-07T19:02:54.263Z,49.80
2018-04-07T19:05:21.847Z,49.70
2018-04-07T19:07:49.508Z,49.40
2018-04-07T19:10:17.472Z,49.90
2018-04-07T19:12:45.092Z,50.10
2018-04-07T19:15:13.495Z,50.50
2018-04-07T19:17:41.185Z,50.30
2018-04-07T19:20:09.046Z,50.60
2018-04-07T19:22:36.725Z,51.20
2018-04-07T19:25:04.369Z,51.50
2018-04-07T19:27:32.738Z,51.80
2018-04-07T19:30:01.155Z,52.10
2018-04-07T19:32:28.763Z,52.10
2018-04-07T19:34:56.388Z,52.30
2018-04-07T19:37:24.669Z,52.50
2018-04-07T19:39:52.257Z,52.60
2018-04-07T19:42:19.869Z,52.60
2018-04-07T19:44:48.244Z,53.10
2018-04-07T19:47:16.665Z,53.20
2018-04-07T19:49:44.334Z,53.10
2018-04-07T19:52:11.915Z,53.60
2018-04-07T19:54:39.480Z,53.50
2018-04-07T19:57:07.320Z,53.90
2018-04-07T19:59:35.002Z,53.90
2018-04-07T20:02:03.363Z,54.30
2018-04-07T20:04:31.768Z,54.50
2018-04-07T20:06:59.841Z,54.50
2018-04-07T20:09:27.516Z,54.70
2018-04-07T20:11:55.176Z,54.70
2018-04-07T20:14:22.852Z,54.90
2018-04-07T20:16:50.513Z,55.10
2018-04-07T20:19:18.177Z,55.20
2018-04-07T20:21:45.772Z,55.20
2018-04-07T20:24:13.409Z,55.50
2018-04-07T20:26:40.999Z,55.80
2018-04-07T20:29:08.639Z,56.20
2018-04-07T20:31:36.174Z,56.30
2018-04-07T20:34:04.576Z,56.80
2018-04-07T20:36:32.251Z,56.80
2018-04-07T20:38:59.794Z,56.80
2018-04-07T20:41:27.358Z,57.20
2018-04-07T20:43:55.662Z,57.90
2018-04-07T20:46:23.339Z,57.80
2018-04-07T20:48:50.912Z,58.00
2018-04-07T20:51:18.565Z,58.00
2018-04-07T20:53:46.148Z,58.30
2018-04-07T20:56:13.754Z,58.50
2018-04-07T20:58:42.060Z,58.80
2018-04-07T21:01:10.347Z,58.90
2018-04-07T21:03:37.918Z,58.90
2018-04-07T21:06:05.491Z,59.00
2018-04-07T21:08:33.153Z,59.20
2018-04-07T21:11:00.717Z,59.50
2018-04-07T21:13:28.408Z,59.80
2018-04-07T21:15:55.919Z,59.60
2018-04-07T21:18:26.590Z,60.10
2018-04-07T21:20:54.146Z,60.10
2018-04-07T21:23:21.715Z,59.70
2018-04-07T21:25:49.285Z,59.50
2018-04-07T21:28:16.809Z,59.70
2018-04-07T21:30:45.128Z,59.80
2018-04-07T21:33:12.702Z,59.80
2018-04-07T21:35:40.257Z,59.40
2018-04-07T21:38:07.779Z,59.60
2018-04-07T21:40:36.203Z,59.60
2018-04-07T21:43:03.763Z,59.60
2018-04-07T21:45:31.312Z,59.70
2018-04-07T21:47:59.633Z,60.30
2018-04-07T21:50:27.173Z,60.30
2018-04-07T21:52:54.741Z,60.10
2018-04-07T21:55:22.276Z,60.30
2018-04-07T21:57:50.586Z,60.80
2018-04-07T22:00:18.152Z,60.80
2018-04-07T22:02:45.692Z,61.10
2018-04-07T22:05:13.996Z,61.10
2018-04-07T22:07:41.509Z,61.10
2018-04-07T22:10:09.052Z,61.00
2018-04-07T22:12:36.589Z,61.10
2018-04-07T22:15:04.137Z,61.20
2018-04-07T22:17:31.713Z,61.30
2018-04-07T22:19:59.258Z,61.30
2018-04-07T22:22:27.558Z,61.50
2018-04-07T22:24:55.096Z,61.40
2018-04-07T22:27:23.383Z,62.10
2018-04-07T22:29:51.685Z,62.50
2018-04-07T22:32:19.193Z,62.50
2018-04-07T22:34:46.816Z,62.70
2018-04-07T22:37:14.335Z,62.60
2018-04-07T22:39:41.883Z,62.80
2018-04-07T22:42:09.441Z,62.80
2018-04-07T22:44:36.959Z,63.00
2018-04-07T22:47:04.493Z,63.10
2018-04-07T22:49:32.113Z,63.40
2018-04-07T22:51:59.770Z,63.20
2018-04-07T22:54:27.333Z,63.50
2018-04-07T22:56:54.899Z,63.60
2018-04-07T22:59:22.442Z,63.70
2018-04-07T23:01:49.960Z,63.90
2018-04-07T23:04:17.490Z,63.90
2018-04-07T23:06:45.017Z,64.10
2018-04-07T23:09:13.322Z,64.80
2018-04-07T23:11:40.848Z,64.40
2018-04-07T23:14:08.398Z,64.20
2018-04-07T23:16:36.031Z,65.50
2018-04-07T23:19:03.551Z,65.80
2018-04-07T23:21:31.857Z,66.10
2018-04-07T23:23:59.412Z,66.10
2018-04-07T23:26:27.963Z,66.20
2018-04-07T23:28:55.473Z,66.20
2018-04-07T23:31:23.751Z,66.20
2018-04-07T23:33:52.063Z,66.80
2018-04-07T23:36:19.585Z,66.30
2018-04-07T23:38:48.003Z,66.70
2018-04-07T23:41:15.534Z,66.70
2018-04-07T23:43:43.846Z,66.70
2018-04-07T23:46:11.411Z,66.60
2018-04-07T23:48:38.926Z,66.70
2018-04-07T23:51:06.486Z,66.70
2018-04-07T23:53:34.007Z,66.90
2018-04-07T23:56:01.543Z,66.70
2018-04-07T23:58:29.838Z,67.10
